createdAt,value
2022-10-06T00:02:43.124Z,99825.44
2022-10-06T00:05:31.030Z,99832.28
2022-10-06T00:08:19.487Z,99839.09
2022-10-06T00:11:07.476Z,99708.78
2022-10-06T00:13:53.875Z,99828.50
2022-10-06T00:16:40.264Z,99840.56
2022-10-06T00:19:26.737Z,99856.09
2022-10-06T00:22:13.023Z,99856.91
2022-10-06T00:24:59.743Z,99842.16
2022-10-06T00:27:48.154Z,99856.72
2022-10-06T00:30:37.066Z,99874.00
2022-10-06T00:33:24.196Z,99876.47
2022-10-06T00:36:11.031Z,99865.03
2022-10-06T00:38:57.442Z,99833.59
2022-10-06T00:41:44.058Z,99873.44
2022-10-06T00:44:30.252Z,99897.66
2022-10-06T00:47:17.792Z,99902.78
2022-10-06T00:50:04.693Z,99883.63
2022-10-06T00:52:51.043Z,99890.53
2022-10-06T00:55:37.870Z,99897.47
2022-10-06T00:58:25.197Z,99894.81
2022-10-06T01:01:13.088Z,99895.69
2022-10-06T01:04:06.047Z,99917.50
2022-10-06T01:06:56.690Z,99923.44
2022-10-06T01:09:43.317Z,99922.66
2022-10-06T01:12:33.444Z,99847.56
2022-10-06T01:15:24.899Z,99910.44
2022-10-06T01:18:15.268Z,99904.22
2022-10-06T01:21:44.464Z,99932.97
2022-10-06T01:24:30.855Z,99898.13
2022-10-06T01:27:18.606Z,99931.13
2022-10-06T01:30:08.652Z,99940.72
2022-10-06T01:32:55.648Z,99935.50
2022-10-06T01:35:47.301Z,99811.00
2022-10-06T01:38:34.014Z,99849.31
2022-10-06T01:41:24.826Z,99915.50
2022-10-06T01:44:11.065Z,99875.63
2022-10-06T01:46:57.570Z,99921.63
2022-10-06T01:49:49.647Z,99907.78
2022-10-06T01:52:36.757Z,99857.34
2022-10-06T01:55:24.736Z,99913.81
2022-10-06T01:58:11.855Z,99874.63
2022-10-06T02:01:07.281Z,99897.25
2022-10-06T02:03:55.361Z,99872.97
2022-10-06T02:06:42.629Z,99869.41
2022-10-06T02:09:29.087Z,99924.16
2022-10-06T02:12:16.018Z,99909.38
2022-10-06T02:15:03.035Z,99944.03
2022-10-06T02:17:49.704Z,99912.69
2022-10-06T02:20:36.234Z,99948.25
2022-10-06T02:23:22.702Z,99926.38
2022-10-06T02:26:09.930Z,99944.72
2022-10-06T02:28:56.236Z,99944.66
2022-10-06T02:31:44.005Z,99957.78
2022-10-06T02:34:30.694Z,99961.97
2022-10-06T02:37:17.819Z,99948.81
2022-10-06T02:40:05.866Z,99971.22
2022-10-06T02:42:52.884Z,99951.31
2022-10-06T02:45:43.191Z,99976.28
2022-10-06T02:48:31.183Z,99964.06
2022-10-06T02:51:19.734Z,99999.56
2022-10-06T02:54:06.122Z,99992.72
2022-10-06T02:56:54.275Z,100009.28
2022-10-06T02:59:40.894Z,99948.13
2022-10-06T03:02:30.382Z,99935.91
2022-10-06T03:05:18.957Z,100006.31
2022-10-06T03:08:06.470Z,100027.03
2022-10-06T03:10:58.593Z,100038.22
2022-10-06T03:13:46.709Z,100032.94
2022-10-06T03:16:39.222Z,100035.31
2022-10-06T03:19:29.830Z,100044.97
2022-10-06T03:22:16.511Z,100057.06
2022-10-06T03:25:12.513Z,100051.13
2022-10-06T03:27:59.220Z,100062.72
2022-10-06T03:30:46.033Z,100062.78
2022-10-06T03:33:34.700Z,100064.72
2022-10-06T03:36:23.979Z,100066.72
2022-10-06T03:39:10.289Z,100084.19
2022-10-06T03:41:57.547Z,100086.06
2022-10-06T03:44:44.656Z,100074.06
2022-10-06T03:47:31.122Z,100093.38
2022-10-06T03:50:18.289Z,100102.09
2022-10-06T03:53:04.571Z,100089.91
2022-10-06T03:56:06.883Z,100097.03
2022-10-06T03:58:55.544Z,100083.22
2022-10-06T04:01:45.370Z,100098.84
2022-10-06T04:04:34.444Z,100097.16
2022-10-06T04:07:26.540Z,100088.50
2022-10-06T04:10:13.017Z,100073.69
2022-10-06T04:12:59.511Z,100098.03
2022-10-06T04:15:46.951Z,100100.63
2022-10-06T04:18:33.449Z,100091.94
2022-10-06T04:21:20.603Z,100100.75
2022-10-06T04:24:08.368Z,100123.50
2022-10-06T04:27:15.910Z,100121.78
2022-10-06T04:30:04.948Z,100121.09
2022-10-06T04:32:53.666Z,100125.53
2022-10-06T04:35:39.905Z,100122.94
2022-10-06T04:38:28.172Z,100124.06
2022-10-06T04:41:18.382Z,100129.28
2022-10-06T04:44:06.701Z,100126.00
2022-10-06T04:46:53.125Z,100130.47
2022-10-06T04:49:40.334Z,100143.56
2022-10-06T04:52:27.947Z,100143.00
2022-10-06T04:55:14.919Z,100138.34
2022-10-06T04:58:01.688Z,100149.03
2022-10-06T05:00:49.184Z,100154.75
2022-10-06T05:03:35.668Z,100155.13
2022-10-06T05:06:30.800Z,100147.50
2022-10-06T05:09:18.007Z,100156.34
2022-10-06T05:12:10.841Z,100161.72
2022-10-06T05:14:58.306Z,100160.19
2022-10-06T05:17:45.435Z,100165.47
2022-10-06T05:20:32.053Z,100175.03
2022-10-06T05:23:18.764Z,100174.22
2022-10-06T05:26:07.409Z,100185.50
2022-10-06T05:28:53.869Z,100169.00
2022-10-06T05:31:43.052Z,100198.56
2022-10-06T05:34:30.404Z,100191.59
2022-10-06T05:37:16.977Z,100206.38
2022-10-06T05:40:03.742Z,100205.53
2022-10-06T05:42:50.544Z,100207.28
2022-10-06T05:45:37.226Z,100209.88
2022-10-06T05:48:24.445Z,100213.34
2022-10-06T05:51:10.965Z,100213.34
2022-10-06T05:53:59.756Z,100212.47
2022-10-06T05:56:46.630Z,100209.84
2022-10-06T05:59:32.845Z,100215.09
2022-10-06T06:02:20.777Z,100233.38
2022-10-06T06:05:07.577Z,100243.75
2022-10-06T06:07:54.357Z,100243.75
2022-10-06T06:10:41.267Z,100250.69
2022-10-06T06:13:27.934Z,100241.97
2022-10-06T06:16:22.485Z,100263.69
2022-10-06T06:19:11.083Z,100267.13
2022-10-06T06:21:59.254Z,100275.84
2022-10-06T06:24:46.178Z,100281.06
2022-10-06T06:27:33.842Z,100282.84
2022-10-06T06:30:21.294Z,100288.91
2022-10-06T06:33:08.289Z,100297.63
2022-10-06T06:35:55.279Z,100294.13
2022-10-06T06:38:43.448Z,100311.53
2022-10-06T06:41:33.107Z,100311.53
2022-10-06T06:44:25.993Z,100319.41
2022-10-06T06:47:24.455Z,100316.81
2022-10-06T06:50:13.963Z,100332.47
2022-10-06T06:53:02.470Z,100334.19
2022-10-06T06:55:51.217Z,100335.94
2022-10-06T06:58:39.750Z,100340.28
2022-10-06T07:01:26.627Z,100338.56
2022-10-06T07:04:15.840Z,100335.91
2022-10-06T07:07:02.883Z,100346.38
2022-10-06T07:09:52.620Z,100358.53
2022-10-06T07:12:43.291Z,100359.41
2022-10-06T07:15:48.452Z,100346.38
2022-10-06T07:18:55.113Z,100364.63
2022-10-06T07:22:00.332Z,100356.81
2022-10-06T07:25:06.099Z,100366.38
2022-10-06T07:27:54.646Z,100358.53
2022-10-06T07:30:54.605Z,100369.00
2022-10-06T07:33:41.436Z,100360.31
2022-10-06T07:36:28.681Z,100392.47
2022-10-06T07:39:15.604Z,100386.41
2022-10-06T07:42:06.205Z,100381.19
2022-10-06T07:45:11.261Z,100388.09
2022-10-06T07:48:01.174Z,100379.44
2022-10-06T07:50:52.372Z,100402.03
2022-10-06T07:53:50.130Z,100398.53
2022-10-06T07:56:53.882Z,100407.22
2022-10-06T07:59:41.560Z,100412.44
2022-10-06T08:02:31.430Z,100422.94
2022-10-06T08:05:22.207Z,100412.44
2022-10-06T08:08:08.493Z,100429.00
2022-10-06T08:10:56.568Z,100424.66
2022-10-06T08:13:45.766Z,100433.34
2022-10-06T08:16:32.135Z,100435.94
2022-10-06T08:19:19.597Z,100422.84
2022-10-06T08:22:06.333Z,100418.44
2022-10-06T08:25:05.834Z,100438.44
2022-10-06T08:27:56.071Z,100440.09
2022-10-06T08:30:42.630Z,100433.22
2022-10-06T08:33:29.261Z,100427.13
2022-10-06T08:36:19.127Z,100419.28
2022-10-06T08:39:07.152Z,100441.91
2022-10-06T08:41:54.785Z,100395.84
2022-10-06T08:44:48.822Z,100425.41
2022-10-06T08:47:37.026Z,100460.97
2022-10-06T08:50:27.430Z,100460.97
2022-10-06T08:53:28.381Z,100460.06
2022-10-06T08:56:22.617Z,100460.91
2022-10-06T08:59:09.763Z,100454.78
2022-10-06T09:01:56.296Z,100466.94
2022-10-06T09:04:43.374Z,100462.50
2022-10-06T09:07:58.250Z,100455.50
2022-10-06T09:11:21.984Z,100466.69
2022-10-06T09:14:33.206Z,100469.41
2022-10-06T09:17:26.492Z,100469.50
2022-10-06T09:20:20.727Z,100464.25
2022-10-06T09:23:15.605Z,100464.28
2022-10-06T09:26:03.343Z,100462.47
2022-10-06T09:28:51.157Z,100485.13
2022-10-06T09:31:42.179Z,100465.16
2022-10-06T09:34:40.191Z,100463.53
2022-10-06T09:37:27.669Z,100486.22
2022-10-06T09:40:39.052Z,100473.13
2022-10-06T09:43:28.883Z,100479.22
2022-10-06T09:46:29.377Z,100478.31
2022-10-06T09:49:21.646Z,100457.47
2022-10-06T09:52:16.057Z,100492.31
2022-10-06T09:55:19.283Z,100487.03
2022-10-06T09:58:34.048Z,100495.66
2022-10-06T10:01:25.150Z,100495.69
2022-10-06T10:04:21.924Z,100487.78
2022-10-06T10:07:24.230Z,100494.66
2022-10-06T10:10:22.951Z,100450.31
2022-10-06T10:13:26.199Z,100500.69
2022-10-06T10:16:19.317Z,100500.56
2022-10-06T10:19:06.127Z,100496.94
2022-10-06T10:21:56.352Z,100502.09
2022-10-06T10:25:21.652Z,100489.84
2022-10-06T10:28:14.102Z,100507.97
2022-10-06T10:31:03.955Z,100501.03
2022-10-06T10:34:12.646Z,100481.91
2022-10-06T10:37:14.953Z,100504.28
2022-10-06T10:40:11.958Z,100495.59
2022-10-06T10:43:22.806Z,100498.06
2022-10-06T10:46:39.479Z,100498.00
2022-10-06T10:49:28.691Z,100502.31
2022-10-06T10:52:23.910Z,100485.69
2022-10-06T10:55:39.388Z,100492.44
2022-10-06T10:58:38.557Z,100499.34
2022-10-06T11:01:43.520Z,100494.09
2022-10-06T11:04:30.828Z,100492.34
2022-10-06T11:07:26.481Z,100494.03
2022-10-06T11:10:32.954Z,100498.44
2022-10-06T11:13:46.285Z,100492.44
2022-10-06T11:16:46.047Z,100485.25
2022-10-06T11:20:08.128Z,100470.47
2022-10-06T11:23:17.921Z,100484.53
2022-10-06T11:26:20.982Z,100478.34
2022-10-06T11:29:32.922Z,100464.50
2022-10-06T11:32:25.100Z,100487.16
2022-10-06T11:35:24.219Z,100483.59
2022-10-06T11:38:29.346Z,100467.91
2022-10-06T11:41:34.533Z,100476.06
2022-10-06T11:44:45.839Z,100471.38
2022-10-06T11:47:47.191Z,100483.50
2022-10-06T11:50:46.806Z,100475.41
2022-10-06T11:53:34.498Z,100469.47
2022-10-06T11:56:20.646Z,100466.88
2022-10-06T11:59:13.035Z,100481.91
2022-10-06T12:01:59.576Z,100467.69
2022-10-06T12:08:41.518Z,100458.97
2022-10-06T12:11:42.731Z,100443.41
2022-10-06T12:16:55.321Z,100467.66
2022-10-06T12:18:22.630Z,100444.06
2022-10-06T12:21:50.764Z,100458.78
2022-10-06T12:24:43.727Z,100453.38
2022-10-06T12:28:04.765Z,100449.75
2022-10-06T12:31:19.614Z,100453.03
2022-10-06T12:34:44.156Z,100456.41
2022-10-06T12:37:39.829Z,100454.47
2022-10-06T12:40:39.875Z,100453.25
2022-10-06T12:43:29.682Z,100441.25
2022-10-06T12:46:22.000Z,100452.13
2022-10-06T12:49:36.947Z,100450.22
2022-10-06T12:52:40.474Z,100432.44
2022-10-06T12:56:05.085Z,100447.19
2022-10-06T12:58:51.691Z,100443.03
2022-10-06T13:01:38.364Z,100439.91
2022-10-06T13:04:54.296Z,100433.97
2022-10-06T13:07:58.280Z,100423.50
2022-10-06T13:13:38.079Z,100430.44
2022-10-06T13:16:29.098Z,100423.09
2022-10-06T13:19:21.512Z,100429.28
2022-10-06T13:22:12.762Z,100419.66
2022-10-06T13:25:00.929Z,100419.41
2022-10-06T13:27:55.102Z,100419.19
2022-10-06T13:30:41.945Z,100410.50
2022-10-06T13:33:43.004Z,100406.97
2022-10-06T13:36:32.173Z,100424.56
2022-10-06T13:39:24.568Z,100407.97
2022-10-06T13:42:17.906Z,100411.09
2022-10-06T13:45:06.883Z,100403.38
2022-10-06T13:48:15.116Z,100418.50
2022-10-06T13:51:03.407Z,100416.38
2022-10-06T13:53:51.911Z,100402.38
2022-10-06T13:56:39.978Z,100406.84
2022-10-06T13:59:29.426Z,100359.97
2022-10-06T14:02:18.725Z,100417.25
2022-10-06T14:05:26.395Z,100406.06
2022-10-06T14:08:12.833Z,100411.41
2022-10-06T14:11:06.949Z,100400.16
2022-10-06T14:13:57.989Z,100411.69
2022-10-06T14:16:50.612Z,100405.72
2022-10-06T14:19:40.674Z,100411.03
2022-10-06T14:22:38.261Z,100408.56
2022-10-06T14:25:25.202Z,100389.53
2022-10-06T14:28:11.805Z,100386.91
2022-10-06T14:30:58.311Z,100379.97
2022-10-06T14:33:46.588Z,100392.13
2022-10-06T14:36:36.754Z,100393.91
2022-10-06T14:39:23.099Z,100375.75
2022-10-06T14:42:11.184Z,100386.16
2022-10-06T14:44:58.011Z,100394.97
2022-10-06T14:47:46.372Z,100375.84
2022-10-06T14:50:33.984Z,100377.69
2022-10-06T14:53:20.211Z,100372.44
2022-10-06T14:56:10.803Z,100381.16
2022-10-06T14:59:00.605Z,100372.38
2022-10-06T15:01:49.351Z,100384.59
2022-10-06T15:04:35.743Z,100383.78
2022-10-06T15:07:40.666Z,100360.38
2022-10-06T15:10:27.384Z,100378.66
2022-10-06T15:13:13.764Z,100371.69
2022-10-06T15:16:00.062Z,100356.13
2022-10-06T15:18:46.708Z,100351.78
2022-10-06T15:21:34.177Z,100362.25
2022-10-06T15:24:20.642Z,100357.97
2022-10-06T15:27:25.636Z,100364.06
2022-10-06T15:30:12.331Z,100350.13
2022-10-06T15:33:01.689Z,100364.06
2022-10-06T15:36:08.215Z,100358.03
2022-10-06T15:38:58.385Z,100336.31
2022-10-06T15:41:45.972Z,100351.13
2022-10-06T15:44:34.246Z,100358.19
2022-10-06T15:47:20.975Z,100359.97
2022-10-06T15:50:07.908Z,100347.00
2022-10-06T15:52:55.225Z,100354.84
2022-10-06T15:55:41.640Z,100337.50
2022-10-06T15:58:27.943Z,100335.84
2022-10-06T16:01:34.801Z,100355.03
2022-10-06T16:04:39.113Z,100337.66
2022-10-06T16:07:25.668Z,100368.97
2022-10-06T16:10:13.502Z,100355.94
2022-10-06T16:13:00.226Z,100355.06
2022-10-06T16:15:53.073Z,100360.28
2022-10-06T16:18:39.826Z,100360.28
2022-10-06T16:21:26.173Z,100332.44
2022-10-06T16:24:12.527Z,100350.69
2022-10-06T16:27:00.018Z,100341.16
2022-10-06T16:29:46.710Z,100350.72
2022-10-06T16:32:32.966Z,100359.41
2022-10-06T16:35:20.362Z,100361.16
2022-10-06T16:38:07.052Z,100354.19
2022-10-06T16:41:05.751Z,100361.16
2022-10-06T16:43:53.948Z,100346.38
2022-10-06T16:46:40.697Z,100365.53
2022-10-06T16:49:28.247Z,100359.44
2022-10-06T16:52:14.629Z,100361.13
2022-10-06T16:55:02.603Z,100353.28
2022-10-06T16:57:55.678Z,100370.69
2022-10-06T17:00:42.242Z,100376.66
2022-10-06T17:03:29.135Z,100367.13
2022-10-06T17:06:21.761Z,100366.16
2022-10-06T17:09:14.287Z,100376.56
2022-10-06T17:12:02.699Z,100378.28
2022-10-06T17:14:49.238Z,100380.84
2022-10-06T17:17:35.409Z,100372.97
2022-10-06T17:20:22.464Z,100383.34
2022-10-06T17:23:09.807Z,100378.97
2022-10-06T17:26:21.039Z,100386.75
2022-10-06T17:29:12.857Z,100394.56
2022-10-06T17:32:00.412Z,100389.31
2022-10-06T17:34:47.774Z,100392.78
2022-10-06T17:37:34.031Z,100373.63
2022-10-06T17:40:20.517Z,100377.06
2022-10-06T17:43:06.814Z,100394.47
2022-10-06T17:45:53.112Z,100399.66
2022-10-06T17:48:41.856Z,100395.34
2022-10-06T17:51:30.002Z,100406.66
2022-10-06T17:54:20.016Z,100400.59
2022-10-06T17:57:06.617Z,100398.94
2022-10-06T17:59:52.891Z,100385.84
2022-10-06T18:02:40.460Z,100387.63
2022-10-06T18:05:32.148Z,100395.41
2022-10-06T18:08:19.673Z,100396.31
2022-10-06T18:11:25.087Z,100404.22
2022-10-06T18:14:12.620Z,100406.00
2022-10-06T18:17:01.639Z,100405.09
2022-10-06T18:19:49.443Z,100395.47
2022-10-06T18:22:36.211Z,100394.59
2022-10-06T18:25:26.944Z,100386.72
2022-10-06T18:28:13.778Z,100393.69
2022-10-06T18:31:00.365Z,100383.22
2022-10-06T18:36:54.691Z,100379.03
2022-10-06T18:39:41.121Z,100380.75
2022-10-06T18:42:28.020Z,100356.38
2022-10-06T18:45:39.109Z,100359.00
2022-10-06T18:48:44.643Z,100372.94
2022-10-06T18:51:33.864Z,100373.84
2022-10-06T18:54:23.892Z,100372.06
2022-10-06T18:57:10.691Z,100362.47
2022-10-06T18:59:56.961Z,100366.78
2022-10-06T19:02:48.119Z,100378.94
2022-10-06T19:05:35.172Z,100354.69
2022-10-06T19:08:21.375Z,100372.09
2022-10-06T19:11:26.695Z,100366.84
2022-10-06T19:14:16.189Z,100374.63
2022-10-06T19:17:06.689Z,100383.31
2022-10-06T19:19:55.240Z,100383.28
2022-10-06T19:22:43.385Z,100369.31
2022-10-06T19:25:30.185Z,100385.94
2022-10-06T19:28:16.755Z,100393.66
2022-10-06T19:31:12.188Z,100394.47
2022-10-06T19:34:00.646Z,100393.56
2022-10-06T19:36:50.847Z,100386.56
2022-10-06T19:39:42.652Z,100385.66
2022-10-06T19:42:47.370Z,100382.13
2022-10-06T19:45:33.772Z,100375.06
2022-10-06T19:48:20.535Z,100385.47
2022-10-06T19:51:12.198Z,100388.88
2022-10-06T19:54:01.254Z,100393.97
2022-10-06T19:56:47.816Z,100377.38
2022-10-06T19:59:35.507Z,100386.09
2022-10-06T20:02:22.287Z,100392.00
2022-10-06T20:05:10.263Z,100388.28
2022-10-06T20:07:56.518Z,100382.06
2022-10-06T20:10:43.433Z,100368.88
2022-10-06T20:13:33.183Z,100364.31
2022-10-06T20:16:20.570Z,100387.72
2022-10-06T20:19:08.176Z,100391.03
2022-10-06T20:21:54.922Z,100384.84
2022-10-06T20:24:41.300Z,100383.84
2022-10-06T20:27:27.549Z,100388.16
2022-10-06T20:30:13.804Z,100395.81
2022-10-06T20:33:00.424Z,100390.47
2022-10-06T20:35:46.863Z,100399.06
2022-10-06T20:38:51.809Z,100398.16
2022-10-06T20:41:39.202Z,100384.31
2022-10-06T20:44:25.635Z,100393.78
2022-10-06T20:47:13.289Z,100393.78
2022-10-06T20:50:02.717Z,100386.97
2022-10-06T20:52:49.044Z,100385.25
2022-10-06T20:55:35.248Z,100382.72
2022-10-06T20:58:21.479Z,100380.22
2022-10-06T21:01:13.464Z,100354.06
2022-10-06T21:04:00.159Z,100379.50
2022-10-06T21:06:46.743Z,100379.56
2022-10-06T21:09:33.162Z,100372.53
2022-10-06T21:12:20.242Z,100383.06
2022-10-06T21:15:10.172Z,100381.28
2022-10-06T21:17:56.617Z,100377.88
2022-10-06T21:20:46.202Z,100378.69
2022-10-06T21:23:40.238Z,100329.69
2022-10-06T21:26:27.895Z,100374.25
2022-10-06T21:29:15.985Z,100380.28
2022-10-06T21:32:03.096Z,100366.28
2022-10-06T21:34:50.271Z,100362.81
2022-10-06T21:37:37.201Z,100366.28
2022-10-06T21:40:23.408Z,100370.59
2022-10-06T21:43:09.691Z,100325.25
2022-10-06T21:46:17.090Z,100359.22
2022-10-06T21:49:04.928Z,100333.03
2022-10-06T21:51:53.525Z,100355.59
2022-10-06T21:54:40.090Z,100345.94
2022-10-06T21:57:26.347Z,100352.06
2022-10-06T22:00:13.303Z,100348.53
2022-10-06T22:02:59.684Z,100346.75
2022-10-06T22:05:46.351Z,100347.63
2022-10-06T22:08:33.875Z,100352.78
2022-10-06T22:11:24.267Z,100347.66
2022-10-06T22:14:13.268Z,100326.00
2022-10-06T22:16:59.574Z,100320.00
2022-10-06T22:19:45.796Z,100333.16
2022-10-06T22:22:32.247Z,100329.75
2022-10-06T22:25:22.501Z,100324.66
2022-10-06T22:28:09.083Z,100329.03
2022-10-06T22:31:11.646Z,100316.00
2022-10-06T22:34:00.075Z,100321.97
2022-10-06T22:36:46.814Z,100314.94
2022-10-06T22:39:34.133Z,100324.50
2022-10-06T22:42:20.592Z,100315.84
2022-10-06T22:45:07.024Z,100320.94
2022-10-06T22:47:53.535Z,100289.59
2022-10-06T22:50:39.750Z,100292.22
2022-10-06T22:53:30.034Z,100309.66
2022-10-06T22:56:16.625Z,100303.56
2022-10-06T22:59:02.884Z,100274.97
2022-10-06T23:01:49.418Z,100299.22
2022-10-06T23:04:36.026Z,100284.53
2022-10-06T23:07:22.222Z,100277.66
2022-10-06T23:10:08.838Z,100266.28
2022-10-06T23:12:57.208Z,100273.34
2022-10-06T23:15:43.745Z,100270.75
2022-10-06T23:18:29.851Z,100270.81
2022-10-06T23:21:22.217Z,100265.63
2022-10-06T23:24:08.987Z,100264.72
2022-10-06T23:26:57.942Z,100268.22
2022-10-06T23:29:44.564Z,100265.69
2022-10-06T23:32:31.346Z,100263.03
2022-10-06T23:35:18.846Z,100218.59
2022-10-06T23:38:05.458Z,100263.84
2022-10-06T23:40:51.872Z,100258.63
2022-10-06T23:43:38.128Z,100261.34
2022-10-06T23:46:24.318Z,100258.88
2022-10-06T23:49:10.834Z,100260.63
2022-10-06T23:51:57.521Z,100252.84
2022-10-06T23:54:43.814Z,100251.09
2022-10-06T23:57:30.219Z,100257.06
